Terminal Aerodrome Forecast
Issued by NWS

Home | Current Version | Previous Version | Graphics & Text | Print | Product List | Glossary On
Versions: 1 2 3 4 5 6 7 8 9 10 11 12 13 14 15 16
000
FTUS43 KMPX 130527
TAFAXN
TAF
KAXN 130527Z 1306/1406 20008KT P6SM BKN100
     FM130700 24007KT P6SM BKN100
     FM130900 30010KT P6SM VCSH OVC035
     FM131200 32018G27KT P6SM OVC010
     FM131500 33024G32KT P6SM OVC015
     FM140100 34011G17KT P6SM OVC015=

USA.gov is the U.S. government's official web portal to all federal, state and local government web resources and services.